Time;durP1;ratioP1;P1;durP2;ratioP2;P2;SDS_P1;SDS_P2;PMS_P1;PMS_P2;Temp;Humidity;BMP_temperature;BMP_pressure;BME280_temperature;BME280_humidity;BME280_pressure;Samples;Min_cycle;Max_cycle;Signal;HPM_P1;HPM_P2
2022/12/09 00:01:44;;;;;;;;;;;;;;;20.75;29.21;97742.38;5120951;28;808;-80
2022/12/09 00:04:09;;;;;;;;;;;;;;;20.75;29.38;97742.38;5119536;28;910;-80
2022/12/09 00:06:35;;;;;;;;;;;;;;;20.99;28.75;97745.75;5120652;28;742;-81
2022/12/09 00:09:00;;;;;;;;;;;;;;;21.06;28.58;97754.84;5119148;28;1018;-81
2022/12/09 00:11:26;;;;;;;;;;;;;;;20.72;28.86;97752.53;5120109;28;1902;-81
2022/12/09 00:13:55;;;;;;;;;;;;;;;20.49;29.51;97749.94;5118861;28;774;-81
2022/12/09 00:16:21;;;;;;;;;;;;;;;20.58;29.80;97752.13;5120533;28;754;-80
2022/12/09 00:18:46;;;;;;;;;;;;;;;20.79;28.95;97743.88;5118046;28;793;-81
2022/12/09 00:21:12;;;;;;;;;;;;;;;21.04;29.02;97739.56;5120478;27;821;-81
2022/12/09 00:23:38;;;;;;;;;;;;;;;21.04;28.74;97740.34;5117181;28;758;-81
2022/12/09 00:26:03;;;;;;;;;;;;;;;20.68;29.36;97748.22;5120325;28;865;-81
2022/12/09 00:28:29;;;;;;;;;;;;;;;20.39;29.76;97734.81;5118615;28;857;-81
2022/12/09 00:30:57;;;;;;;;;;;;;;;20.62;29.91;97745.13;5120004;28;1898;-81
2022/12/09 00:33:23;;;;;;;;;;;;;;;20.86;28.94;97747.72;5117311;28;1262;-80
2022/12/09 00:35:48;;;;;;;;;;;;;;;21.10;28.61;97743.41;5120289;28;723;-80
2022/12/09 00:38:14;;;;;;;;;;;;;;;21.16;28.76;97755.78;5117809;28;1255;-81
2022/12/09 00:40:39;;;;;;;;;;;;;;;21.00;28.74;97745.31;5118433;28;1289;-81
2022/12/09 00:43:04;;;;;;;;;;;;;;;20.40;29.71;97738.44;5119188;28;730;-81
2022/12/09 00:45:30;;;;;;;;;;;;;;;20.39;29.52;97751.75;5118877;28;757;-81
2022/12/09 00:47:55;;;;;;;;;;;;;;;20.33;30.23;97749.94;5119030;28;802;-81
2022/12/09 00:50:21;;;;;;;;;;;;;;;20.92;28.95;97751.59;5118807;28;2257;-81
2022/12/09 00:52:46;;;;;;;;;;;;;;;21.03;28.79;97746.44;5117915;28;833;-81
2022/12/09 00:55:11;;;;;;;;;;;;;;;21.36;28.20;97749.19;5118749;28;824;-81
2022/12/09 00:57:39;;;;;;;;;;;;;;;20.99;28.71;97751.41;5119260;28;786;-81
2022/12/09 01:00:05;;;;;;;;;;;;;;;20.85;28.81;97743.31;5118356;28;769;-81
2022/12/09 01:02:30;;;;;;;;;;;;;;;20.55;29.53;97748.16;5101413;28;1544;-80
2022/12/09 01:04:55;;;;;;;;;;;;;;;20.95;29.11;97747.91;5118308;28;790;-80
2022/12/09 01:07:21;;;;;;;;;;;;;;;20.91;29.05;97752.84;5101379;28;1080;-81
2022/12/09 01:09:47;;;;;;;;;;;;;;;21.11;28.66;97745.00;5117573;28;1145;-81
2022/12/09 01:12:12;;;;;;;;;;;;;;;21.20;28.63;97747.97;5119410;28;1970;-81
2022/12/09 01:14:38;;;;;;;;;;;;;;;20.81;29.00;97743.41;5117040;28;699;-81
2022/12/09 01:17:03;;;;;;;;;;;;;;;20.48;29.44;97748.34;5079525;28;1141;-81
2022/12/09 01:19:29;;;;;;;;;;;;;;;20.41;29.59;97746.44;5095286;28;891;-81
2022/12/09 01:21:54;;;;;;;;;;;;;;;20.58;29.39;97752.94;5096533;28;931;-81
2022/12/09 01:24:20;;;;;;;;;;;;;;;20.94;29.19;97749.13;5095471;28;775;-81
2022/12/09 01:26:47;;;;;;;;;;;;;;;20.91;28.94;97755.69;5095972;28;962;-81
2022/12/09 01:29:13;;;;;;;;;;;;;;;21.10;28.65;97751.91;5078542;28;1121;-81
2022/12/09 01:31:39;;;;;;;;;;;;;;;21.09;28.62;97747.50;5096408;28;1890;-81
2022/12/09 01:34:05;;;;;;;;;;;;;;;20.98;28.91;97753.44;5077960;28;1347;-80
2022/12/09 01:36:30;;;;;;;;;;;;;;;20.71;29.11;97750.16;5096027;28;788;-81
2022/12/09 01:38:56;;;;;;;;;;;;;;;20.59;29.22;97740.38;5095472;28;771;-81
2022/12/09 01:41:22;;;;;;;;;;;;;;;20.90;29.27;97751.28;5079566;28;821;-81
2022/12/09 01:44:06;;;;;;;;;;;;;;;21.03;28.85;97749.25;5094698;28;838;-81
2022/12/09 01:46:31;;;;;;;;;;;;;;;21.01;28.97;97743.28;5079296;28;1298;-81
2022/12/09 01:48:57;;;;;;;;;;;;;;;21.26;28.45;97746.19;5114875;28;917;-81
2022/12/09 01:51:23;;;;;;;;;;;;;;;20.72;29.10;97746.88;5118339;28;1973;-80
2022/12/09 01:53:48;;;;;;;;;;;;;;;20.58;29.34;97744.44;5099574;28;703;-81
2022/12/09 01:56:15;;;;;;;;;;;;;;;20.38;29.74;97743.75;5100944;28;1110;-81
2022/12/09 01:58:41;;;;;;;;;;;;;;;20.65;29.57;97752.72;5099112;28;1261;-81
2022/12/09 02:01:06;;;;;;;;;;;;;;;20.94;28.93;97754.78;5119082;28;782;-80
2022/12/09 02:03:32;;;;;;;;;;;;;;;21.08;28.71;97746.69;5116183;28;1384;-81
2022/12/09 02:05:58;;;;;;;;;;;;;;;21.06;28.60;97754.03;5117503;28;1250;-81
2022/12/09 02:08:23;;;;;;;;;;;;;;;21.03;28.69;97754.91;5099082;28;1196;-81
2022/12/09 02:11:05;;;;;;;;;;;;;;;21.01;28.52;97752.56;5066470;28;1965;-81
2022/12/09 02:13:39;;;;;;;;;;;;;;;20.56;29.17;97752.56;5099875;28;818;-81
2022/12/09 02:16:06;;;;;;;;;;;;;;;20.51;29.40;97761.56;5118755;28;876;-81
2022/12/09 02:18:52;;;;;;;;;;;;;;;20.98;29.05;97763.94;5073743;28;1042;-81
2022/12/09 02:21:36;;;;;;;;;;;;;;;20.96;28.75;97755.13;5058667;28;1179;-81
2022/12/09 02:24:05;;;;;;;;;;;;;;;20.93;28.84;97761.66;5058099;28;1272;-81
2022/12/09 02:26:32;;;;;;;;;;;;;;;21.16;28.47;97747.28;5058512;28;1437;-81
2022/12/09 02:29:00;;;;;;;;;;;;;;;20.74;29.05;97752.91;5074536;28;920;-81
2022/12/09 02:31:40;;;;;;;;;;;;;;;20.61;28.96;97739.94;5058129;28;1905;-81
2022/12/09 02:34:09;;;;;;;;;;;;;;;20.68;29.34;97739.75;5034509;28;1253;-81
2022/12/09 02:37:03;;;;;;;;;;;;;;;20.73;29.10;97731.53;5019024;28;1082;-80
2022/12/09 02:39:34;;;;;;;;;;;;;;;21.07;28.65;97716.81;5034363;28;1478;-81
2022/12/09 02:42:01;;;;;;;;;;;;;;;21.24;28.16;97737.34;5018667;28;1435;-81
2022/12/09 02:44:27;;;;;;;;;;;;;;;20.70;28.83;97721.09;5018127;28;951;-81
2022/12/09 02:46:53;;;;;;;;;;;;;;;20.63;28.97;97720.50;5036784;28;835;-81
2022/12/09 02:49:18;;;;;;;;;;;;;;;20.79;29.17;97718.41;5037743;28;1154;-81
2022/12/09 02:51:44;;;;;;;;;;;;;;;20.91;28.77;97727.41;5062403;28;1905;-80
2022/12/09 02:54:12;;;;;;;;;;;;;;;21.04;28.51;97722.59;5061334;28;1332;-81
2022/12/09 02:56:38;;;;;;;;;;;;;;;21.03;28.76;97726.63;5045509;28;1189;-81
2022/12/09 02:59:03;;;;;;;;;;;;;;;20.69;28.80;97725.16;5061075;28;1197;-81
2022/12/09 03:01:29;;;;;;;;;;;;;;;20.56;29.14;97721.47;5078602;28;778;-81
2022/12/09 03:03:54;;;;;;;;;;;;;;;20.71;28.90;97717.03;5060898;28;824;-81
2022/12/09 03:06:20;;;;;;;;;;;;;;;20.84;28.75;97724.78;5061708;28;774;-81
2022/12/09 03:08:58;;;;;;;;;;;;;;;20.95;28.69;97728.09;5060504;28;1091;-81
2022/12/09 03:11:24;;;;;;;;;;;;;;;21.02;28.39;97733.53;5080554;28;1961;-80
2022/12/09 03:13:51;;;;;;;;;;;;;;;20.73;28.78;97731.53;5102251;28;749;-81
2022/12/09 03:16:23;;;;;;;;;;;;;;;20.69;28.91;97736.47;5103326;28;754;-81
2022/12/09 03:18:53;;;;;;;;;;;;;;;20.51;29.58;97744.63;5119611;28;837;-81
2022/12/09 03:21:19;;;;;;;;;;;;;;;20.77;28.91;97740.69;5103573;28;837;-81
2022/12/09 03:23:45;;;;;;;;;;;;;;;21.02;28.80;97753.34;5118814;28;915;-81
2022/12/09 03:26:11;;;;;;;;;;;;;;;21.08;28.31;97757.19;5120506;28;777;-81
2022/12/09 03:28:37;;;;;;;;;;;;;;;21.01;28.55;97758.22;5118855;28;829;-81
2022/12/09 03:31:03;;;;;;;;;;;;;;;20.76;28.57;97753.22;5119866;28;1893;-81
2022/12/09 03:33:29;;;;;;;;;;;;;;;20.60;28.98;97749.66;5118336;28;793;-81
2022/12/09 03:35:55;;;;;;;;;;;;;;;20.40;29.41;97746.91;5119798;28;785;-81
2022/12/09 03:38:21;;;;;;;;;;;;;;;20.59;29.54;97765.81;5119575;28;935;-81
2022/12/09 03:40:49;;;;;;;;;;;;;;;20.72;29.07;97768.69;5119458;28;766;-81
2022/12/09 03:43:21;;;;;;;;;;;;;;;20.88;28.94;97765.88;5119056;28;695;-81
2022/12/09 03:45:48;;;;;;;;;;;;;;;21.08;28.38;97768.53;5119539;28;711;-81
2022/12/09 03:48:13;;;;;;;;;;;;;;;21.04;28.48;97771.47;5119958;28;837;-81
2022/12/09 03:50:40;;;;;;;;;;;;;;;20.63;29.00;97769.34;5120426;28;1901;-81
2022/12/09 03:53:08;;;;;;;;;;;;;;;20.33;29.54;97769.69;5118425;28;845;-81
2022/12/09 03:55:52;;;;;;;;;;;;;;;20.59;29.34;97771.47;5118997;28;683;-81
2022/12/09 03:58:19;;;;;;;;;;;;;;;20.97;28.58;97773.69;5100493;28;933;-81
2022/12/09 04:00:44;;;;;;;;;;;;;;;21.31;28.10;97778.81;5121239;28;770;-81
2022/12/09 04:03:11;;;;;;;;;;;;;;;21.30;28.10;97775.19;5101308;28;803;-81
2022/12/09 04:05:36;;;;;;;;;;;;;;;20.88;28.49;97770.69;5120907;28;907;-81
2022/12/09 04:08:02;;;;;;;;;;;;;;;20.60;29.03;97767.41;5119285;28;849;-81
2022/12/09 04:10:27;;;;;;;;;;;;;;;20.70;28.93;97766.31;5119851;27;2004;-81
2022/12/09 04:12:53;;;;;;;;;;;;;;;20.65;29.33;97758.38;5119776;28;865;-81
2022/12/09 04:15:18;;;;;;;;;;;;;;;20.90;29.01;97771.06;5119457;28;829;-81
2022/12/09 04:17:43;;;;;;;;;;;;;;;20.96;28.69;97769.28;5119743;28;762;-81
2022/12/09 04:20:09;;;;;;;;;;;;;;;21.13;28.36;97765.13;5119642;28;753;-81
2022/12/09 04:22:35;;;;;;;;;;;;;;;20.88;28.52;97770.69;5084381;28;958;-81
2022/12/09 04:25:00;;;;;;;;;;;;;;;20.64;28.96;97776.59;5119245;28;844;-82
2022/12/09 04:27:25;;;;;;;;;;;;;;;20.45;29.48;97771.81;5119996;28;956;-81
2022/12/09 04:29:51;;;;;;;;;;;;;;;21.05;28.58;97769.44;5118658;28;758;-81
2022/12/09 04:32:16;;;;;;;;;;;;;;;20.92;28.69;97771.41;5120136;28;1986;-81
2022/12/09 04:34:42;;;;;;;;;;;;;;;20.94;28.68;97774.59;5119059;28;797;-81
2022/12/09 04:37:07;;;;;;;;;;;;;;;21.15;28.35;97785.31;5119486;28;814;-81
2022/12/09 04:39:32;;;;;;;;;;;;;;;20.77;28.71;97782.31;5099839;28;868;-81
2022/12/09 04:41:58;;;;;;;;;;;;;;;20.58;28.77;97786.84;5119908;28;925;-81
2022/12/09 04:44:23;;;;;;;;;;;;;;;20.55;29.68;97779.25;5119208;27;856;-81
2022/12/09 04:46:49;;;;;;;;;;;;;;;20.84;28.89;97784.97;5120300;28;1012;-81
2022/12/09 04:49:14;;;;;;;;;;;;;;;20.92;28.77;97786.34;5119273;28;853;-81
2022/12/09 04:51:40;;;;;;;;;;;;;;;20.92;28.73;97782.72;5101219;28;1903;-81
2022/12/09 04:54:05;;;;;;;;;;;;;;;20.85;28.71;97782.91;5119856;28;901;-81
2022/12/09 04:56:31;;;;;;;;;;;;;;;20.71;28.77;97772.78;5120091;28;857;-80
2022/12/09 04:58:56;;;;;;;;;;;;;;;20.83;29.02;97777.72;5066485;28;979;-81
2022/12/09 05:01:22;;;;;;;;;;;;;;;20.95;28.95;97776.19;5120493;28;900;-81
2022/12/09 05:03:48;;;;;;;;;;;;;;;21.02;28.55;97782.41;5118652;28;884;-81
2022/12/09 05:06:14;;;;;;;;;;;;;;;21.17;28.47;97782.81;5120858;28;812;-80
2022/12/09 05:08:39;;;;;;;;;;;;;;;21.16;28.50;97778.41;5116894;28;1399;-81
2022/12/09 05:11:05;;;;;;;;;;;;;;;20.83;28.73;97776.91;5120453;28;1984;-81
2022/12/09 05:13:30;;;;;;;;;;;;;;;20.53;29.18;97776.09;5119145;28;847;-81
2022/12/09 05:16:00;;;;;;;;;;;;;;;20.66;29.41;97788.25;5120227;28;875;-81
2022/12/09 05:18:25;;;;;;;;;;;;;;;20.90;28.90;97790.88;5117109;28;1452;-81
2022/12/09 05:20:51;;;;;;;;;;;;;;;21.22;28.39;97798.44;5120059;28;833;-81
2022/12/09 05:23:16;;;;;;;;;;;;;;;21.09;28.70;97789.94;5118222;28;956;-80
2022/12/09 05:25:42;;;;;;;;;;;;;;;20.91;28.69;97781.91;5119129;28;783;-81
2022/12/09 05:28:07;;;;;;;;;;;;;;;20.63;29.34;97783.50;5118960;28;834;-80
2022/12/09 05:30:33;;;;;;;;;;;;;;;20.60;29.28;97798.50;5099990;28;1901;-82
2022/12/09 05:32:58;;;;;;;;;;;;;;;20.65;29.50;97797.97;5119021;28;935;-81
2022/12/09 05:35:23;;;;;;;;;;;;;;;20.93;28.98;97804.09;5118978;28;898;-81
2022/12/09 05:37:49;;;;;;;;;;;;;;;20.99;28.94;97803.13;5119113;28;1165;-81
2022/12/09 05:40:14;;;;;;;;;;;;;;;21.20;28.38;97798.91;5117482;28;890;-81
2022/12/09 05:42:40;;;;;;;;;;;;;;;21.24;28.44;97805.28;5118930;28;853;-81
2022/12/09 05:45:05;;;;;;;;;;;;;;;20.73;29.07;97802.22;5117560;28;888;-81
2022/12/09 05:47:31;;;;;;;;;;;;;;;20.53;29.37;97807.16;5119699;28;738;-81
2022/12/09 05:49:56;;;;;;;;;;;;;;;20.27;30.11;97803.34;5117351;28;794;-81
2022/12/09 05:52:22;;;;;;;;;;;;;;;20.77;29.18;97805.72;5119137;28;1913;-80
2022/12/09 05:54:47;;;;;;;;;;;;;;;20.93;29.10;97802.06;5118274;28;855;-80
2022/12/09 05:57:12;;;;;;;;;;;;;;;21.17;28.46;97805.44;5119026;28;787;-81
2022/12/09 05:59:38;;;;;;;;;;;;;;;21.16;28.58;97820.06;5118184;28;843;-81
2022/12/09 06:02:03;;;;;;;;;;;;;;;20.89;28.74;97811.91;5118428;28;893;-81
2022/12/09 06:04:29;;;;;;;;;;;;;;;20.67;29.00;97814.47;5117957;28;926;-81
2022/12/09 06:06:54;;;;;;;;;;;;;;;20.67;29.40;97818.09;5118439;28;1226;-81
2022/12/09 06:09:20;;;;;;;;;;;;;;;20.93;28.84;97818.22;5116954;28;1062;-81
2022/12/09 06:11:45;;;;;;;;;;;;;;;21.24;28.54;97824.25;5118805;28;1976;-81
2022/12/09 06:14:11;;;;;;;;;;;;;;;21.33;28.43;97822.41;5118190;28;773;-81
2022/12/09 06:16:36;;;;;;;;;;;;;;;20.76;28.96;97832.41;5117295;28;901;-81
2022/12/09 06:19:02;;;;;;;;;;;;;;;20.48;29.54;97824.66;5094969;28;904;-81
2022/12/09 06:21:27;;;;;;;;;;;;;;;20.39;29.66;97830.88;5099703;28;834;-81
2022/12/09 06:23:53;;;;;;;;;;;;;;;20.88;29.18;97838.56;5099292;28;853;-81
2022/12/09 06:26:28;;;;;;;;;;;;;;;21.33;28.20;97847.88;5100600;28;806;-81
2022/12/09 06:28:54;;;;;;;;;;;;;;;21.13;28.42;97843.56;5042266;28;909;-80
2022/12/09 06:31:19;;;;;;;;;;;;;;;21.19;28.70;97845.44;5060771;28;1910;-81
2022/12/09 06:33:45;;;;;;;;;;;;;;;21.01;28.66;97842.28;5042023;28;1007;-81
2022/12/09 06:36:10;;;;;;;;;;;;;;;20.46;29.32;97829.91;5060559;28;814;-81
2022/12/09 06:38:36;;;;;;;;;;;;;;;20.59;29.49;97828.00;5058692;28;893;-82
2022/12/09 06:41:05;;;;;;;;;;;;;;;20.88;29.08;97830.91;5059712;28;794;-81
2022/12/09 06:43:30;;;;;;;;;;;;;;;21.01;28.66;97830.97;5058539;28;897;-82
2022/12/09 06:45:55;;;;;;;;;;;;;;;21.09;28.72;97838.03;5042865;28;1202;-82
2022/12/09 06:48:21;;;;;;;;;;;;;;;20.82;28.77;97843.97;5039034;28;1269;-82
2022/12/09 06:50:46;;;;;;;;;;;;;;;20.70;29.12;97851.16;5055914;28;1902;-82
2022/12/09 06:53:12;;;;;;;;;;;;;;;20.65;28.83;97857.34;5058271;28;901;-81
2022/12/09 06:55:37;;;;;;;;;;;;;;;20.96;29.15;97856.97;5058624;28;985;-82
2022/12/09 06:58:03;;;;;;;;;;;;;;;21.04;28.47;97852.72;5058357;28;868;-81
2022/12/09 07:00:28;;;;;;;;;;;;;;;21.14;28.35;97851.63;5090278;28;835;-81
2022/12/09 07:02:53;;;;;;;;;;;;;;;21.18;28.34;97862.84;5101593;28;769;-83
2022/12/09 07:05:19;;;;;;;;;;;;;;;20.75;28.83;97856.25;5101193;28;793;-83
2022/12/09 07:07:48;;;;;;;;;;;;;;;20.62;29.16;97861.03;5100933;28;866;-82
2022/12/09 07:10:14;;;;;;;;;;;;;;;20.60;29.11;97855.03;5101261;28;1116;-83
2022/12/09 07:12:39;;;;;;;;;;;;;;;20.83;29.31;97859.72;5100524;28;1980;-80
2022/12/09 07:15:05;;;;;;;;;;;;;;;21.03;28.65;97862.41;5100985;28;931;-80
2022/12/09 07:17:30;;;;;;;;;;;;;;;21.09;28.60;97866.31;5102215;28;852;-80
2022/12/09 07:19:56;;;;;;;;;;;;;;;20.94;28.88;97860.25;5082159;28;1016;-80
2022/12/09 07:22:21;;;;;;;;;;;;;;;20.46;29.61;97858.19;5102096;28;896;-80
2022/12/09 07:24:46;;;;;;;;;;;;;;;20.45;29.55;97870.72;5100449;28;908;-80
2022/12/09 07:27:13;;;;;;;;;;;;;;;20.61;29.57;97870.75;5101362;28;958;-80
2022/12/09 07:29:38;;;;;;;;;;;;;;;20.95;28.85;97878.00;5099140;28;901;-80
2022/12/09 07:32:04;;;;;;;;;;;;;;;21.00;28.68;97886.75;5100746;28;1910;-80
2022/12/09 07:34:29;;;;;;;;;;;;;;;21.10;28.79;97896.19;5100792;28;844;-80
2022/12/09 07:36:55;;;;;;;;;;;;;;;20.91;28.78;97888.59;5082284;28;882;-81
2022/12/09 07:39:20;;;;;;;;;;;;;;;20.62;29.17;97882.84;5099835;28;933;-81
2022/12/09 07:41:50;;;;;;;;;;;;;;;20.40;29.61;97885.38;5100631;28;770;-81
2022/12/09 07:44:15;;;;;;;;;;;;;;;20.69;29.18;97877.84;5100623;28;925;-81
2022/12/09 07:46:41;;;;;;;;;;;;;;;21.07;28.53;97880.09;5100419;28;1102;-81
2022/12/09 07:49:06;;;;;;;;;;;;;;;21.12;28.43;97885.22;5099913;28;968;-81
2022/12/09 07:51:32;;;;;;;;;;;;;;;21.04;28.46;97875.34;5101173;28;1910;-81
2022/12/09 07:53:57;;;;;;;;;;;;;;;20.65;29.06;97877.13;5099961;28;881;-81
2022/12/09 07:56:23;;;;;;;;;;;;;;;20.62;29.05;97874.38;5099833;28;887;-81
2022/12/09 07:58:51;;;;;;;;;;;;;;;20.77;29.26;97876.41;5099740;28;839;-81
2022/12/09 08:01:18;;;;;;;;;;;;;;;21.05;28.53;97876.94;5100845;28;773;-81
2022/12/09 08:03:43;;;;;;;;;;;;;;;21.08;28.72;97885.31;5099323;28;806;-81
2022/12/09 08:06:15;;;;;;;;;;;;;;;21.06;28.60;97881.34;5101323;28;910;-81
2022/12/09 08:08:41;;;;;;;;;;;;;;;20.68;29.28;97881.91;5097399;28;1230;-80
2022/12/09 08:11:11;;;;;;;;;;;;;;;20.52;29.33;97881.88;5099548;28;1965;-81
2022/12/09 08:13:37;;;;;;;;;;;;;;;20.69;29.46;97877.84;5098234;28;826;-82
2022/12/09 08:16:03;;;;;;;;;;;;;;;21.03;28.67;97885.03;5101155;28;938;-82
2022/12/09 08:18:28;;;;;;;;;;;;;;;20.98;28.98;97882.75;5098768;28;912;-82
2022/12/09 08:20:53;;;;;;;;;;;;;;;21.09;28.69;97888.94;5100821;28;850;-82
2022/12/09 08:23:19;;;;;;;;;;;;;;;20.81;28.81;97890.47;5099636;28;940;-82
2022/12/09 08:25:44;;;;;;;;;;;;;;;20.53;29.37;97883.50;5100816;28;908;-82
2022/12/09 08:28:10;;;;;;;;;;;;;;;20.56;29.30;97885.41;5098691;28;852;-82
2022/12/09 08:30:35;;;;;;;;;;;;;;;20.79;29.11;97882.44;5099608;28;1975;-82
2022/12/09 08:33:01;;;;;;;;;;;;;;;20.94;28.72;97882.88;5076908;28;918;-82
2022/12/09 08:35:28;;;;;;;;;;;;;;;21.11;28.62;97882.84;5076864;28;911;-82
2022/12/09 08:37:54;;;;;;;;;;;;;;;20.81;28.84;97888.41;5060166;28;991;-82
2022/12/09 08:40:19;;;;;;;;;;;;;;;20.62;29.24;97878.00;5076634;28;842;-82
2022/12/09 08:42:45;;;;;;;;;;;;;;;20.59;29.32;97890.19;5076545;28;1023;-82
2022/12/09 08:45:10;;;;;;;;;;;;;;;20.93;28.88;97886.91;5076668;28;884;-82
2022/12/09 08:47:35;;;;;;;;;;;;;;;20.99;28.83;97892.84;5077172;28;925;-82
2022/12/09 08:50:01;;;;;;;;;;;;;;;21.24;28.57;97884.50;5076585;28;775;-82
2022/12/09 08:52:26;;;;;;;;;;;;;;;20.91;28.88;97885.78;5060484;28;1988;-82
2022/12/09 08:54:52;;;;;;;;;;;;;;;20.66;29.40;97884.34;5076474;28;888;-82
2022/12/09 08:57:21;;;;;;;;;;;;;;;20.62;29.25;97880.81;5077679;28;1055;-82
2022/12/09 08:59:47;;;;;;;;;;;;;;;20.79;29.49;97882.44;5076619;28;936;-82
2022/12/09 09:02:12;;;;;;;;;;;;;;;21.04;28.78;97873.31;5077262;28;855;-82
2022/12/09 09:04:38;;;;;;;;;;;;;;;21.14;28.60;97874.25;5093869;28;834;-82
2022/12/09 09:07:03;;;;;;;;;;;;;;;21.17;28.54;97867.69;5100008;28;899;-82
2022/12/09 09:09:28;;;;;;;;;;;;;;;20.91;28.97;97860.31;5098550;28;1117;-82
2022/12/09 09:11:54;;;;;;;;;;;;;;;20.58;29.75;97856.72;5099688;28;1971;-82
2022/12/09 09:14:21;;;;;;;;;;;;;;;20.58;29.71;97856.72;5098498;28;1060;-82
2022/12/09 09:16:46;;;;;;;;;;;;;;;20.97;28.91;97861.38;5098309;28;794;-82
2022/12/09 09:19:16;;;;;;;;;;;;;;;20.93;29.11;97860.66;5099219;28;750;-82
2022/12/09 09:21:41;;;;;;;;;;;;;;;21.06;28.73;97867.19;5098972;28;812;-82
2022/12/09 09:24:10;;;;;;;;;;;;;;;21.13;28.57;97855.69;5098377;28;817;-82
2022/12/09 09:26:37;;;;;;;;;;;;;;;20.96;28.91;97856.97;5099996;28;877;-82
2022/12/09 09:29:03;;;;;;;;;;;;;;;20.86;28.87;97850.34;5098509;28;998;-82
2022/12/09 09:31:28;;;;;;;;;;;;;;;20.69;29.71;97838.25;5099548;28;1996;-82
2022/12/09 09:33:54;;;;;;;;;;;;;;;21.09;28.86;97838.03;5079219;28;859;-82
2022/12/09 09:36:21;;;;;;;;;;;;;;;21.26;28.45;97836.72;5097689;28;973;-81
2022/12/09 09:38:49;;;;;;;;;;;;;;;21.37;28.28;97841.34;5097935;28;922;-83
2022/12/09 09:41:19;;;;;;;;;;;;;;;20.85;28.85;97836.66;5099638;28;874;-81
2022/12/09 09:43:45;;;;;;;;;;;;;;;20.64;29.50;97830.31;5075399;28;959;-82
2022/12/09 09:46:14;;;;;;;;;;;;;;;20.70;29.24;97828.53;5077143;28;898;-82
2022/12/09 09:48:40;;;;;;;;;;;;;;;20.81;29.48;97839.56;5075308;28;917;-82
2022/12/09 09:51:15;;;;;;;;;;;;;;;21.06;28.80;97836.06;5059804;28;1886;-81
2022/12/09 09:53:41;;;;;;;;;;;;;;;21.03;29.05;97834.13;5074847;28;1062;-82
2022/12/09 09:56:13;;;;;;;;;;;;;;;21.09;28.92;97835.19;5079684;28;875;-82
2022/12/09 09:59:01;;;;;;;;;;;;;;;21.20;28.40;97837.72;5079114;28;1001;-82
2022/12/09 10:01:27;;;;;;;;;;;;;;;20.95;29.01;97849.72;5007247;28;932;-82
2022/12/09 10:03:55;;;;;;;;;;;;;;;20.62;29.29;97849.72;5039189;28;966;-82
2022/12/09 10:06:29;;;;;;;;;;;;;;;20.60;29.32;97846.56;5023355;28;1038;-82
2022/12/09 10:08:57;;;;;;;;;;;;;;;20.93;29.00;97846.53;5038613;28;1406;-82
2022/12/09 10:11:35;;;;;;;;;;;;;;;20.90;29.15;97844.59;5040324;28;1971;-82
2022/12/09 10:14:05;;;;;;;;;;;;;;;21.12;28.78;97839.94;5042979;28;988;-82
2022/12/09 10:16:39;;;;;;;;;;;;;;;20.75;29.24;97841.34;5042542;28;2109;-82
2022/12/09 10:19:10;;;;;;;;;;;;;;;20.71;29.20;97832.16;5059027;28;994;-82
2022/12/09 10:21:37;;;;;;;;;;;;;;;20.94;29.25;97837.59;5059996;28;980;-82
2022/12/09 10:24:18;;;;;;;;;;;;;;;20.79;29.45;97825.88;5042849;28;927;-82
2022/12/09 10:26:46;;;;;;;;;;;;;;;20.94;29.32;97822.69;5043081;28;984;-82
2022/12/09 10:29:15;;;;;;;;;;;;;;;20.81;29.17;97822.59;5042174;28;855;-82
2022/12/09 10:31:41;;;;;;;;;;;;;;;20.62;29.41;97815.00;5042934;28;1968;-82
2022/12/09 10:34:07;;;;;;;;;;;;;;;20.45;29.90;97800.06;5058681;28;1028;-80
2022/12/09 10:36:33;;;;;;;;;;;;;;;20.79;29.35;97802.47;5059872;28;953;-80
2022/12/09 10:38:58;;;;;;;;;;;;;;;21.02;29.07;97801.44;5083149;28;1045;-80
2022/12/09 10:43:33;;;;;;;;;;;;;;;21.04;28.93;97796.13;5101905;28;905;-80
2022/12/09 10:44:19;;;;;;;;;;;;;;;21.24;28.86;97787.47;5101240;28;931;-80
2022/12/09 10:46:45;;;;;;;;;;;;;;;20.65;29.75;97785.88;5099447;28;1003;-79
2022/12/09 10:49:16;;;;;;;;;;;;;;;20.65;29.61;97797.16;5101115;28;887;-79
2022/12/09 10:51:45;;;;;;;;;;;;;;;20.66;29.46;97788.25;5100699;28;1902;-79
2022/12/09 10:54:11;;;;;;;;;;;;;;;20.74;29.46;97788.88;5099960;28;919;-80
2022/12/09 10:56:37;;;;;;;;;;;;;;;21.01;29.27;97785.69;5101840;28;934;-80
2022/12/09 10:59:12;;;;;;;;;;;;;;;20.92;29.31;97779.88;5099231;28;820;-79
2022/12/09 11:01:49;;;;;;;;;;;;;;;21.04;29.08;97779.16;5101299;28;1004;-79
2022/12/09 11:04:17;;;;;;;;;;;;;;;20.55;29.82;97782.06;5101015;28;887;-80
2022/12/09 11:06:42;;;;;;;;;;;;;;;20.54;29.94;97778.44;5098689;28;1009;-79
2022/12/09 11:09:08;;;;;;;;;;;;;;;20.81;29.63;97772.47;5082044;28;1170;-81
2022/12/09 11:11:41;;;;;;;;;;;;;;;20.96;29.35;97772.09;5100907;28;1886;-81
2022/12/09 11:14:21;;;;;;;;;;;;;;;20.99;29.20;97757.88;5100753;28;864;-81
2022/12/09 11:16:56;;;;;;;;;;;;;;;21.19;28.92;97763.38;5101329;28;805;-80
2022/12/09 11:19:32;;;;;;;;;;;;;;;20.84;29.44;97778.50;5099436;28;897;-81
2022/12/09 11:22:13;;;;;;;;;;;;;;;20.48;30.20;97776.63;5083116;28;865;-81
2022/12/09 11:24:39;;;;;;;;;;;;;;;20.48;30.08;97760.44;5098655;28;925;-81
2022/12/09 11:27:23;;;;;;;;;;;;;;;20.85;29.50;97771.59;5099678;28;899;-81
2022/12/09 11:30:00;;;;;;;;;;;;;;;20.89;29.58;97766.66;5099789;28;888;-81
2022/12/09 11:32:26;;;;;;;;;;;;;;;20.84;29.46;97762.34;5099283;28;1906;-81
2022/12/09 11:34:51;;;;;;;;;;;;;;;20.71;29.65;97750.16;5099673;28;1021;-81
2022/12/09 11:37:16;;;;;;;;;;;;;;;20.43;30.07;97746.03;5100152;28;874;-81
2022/12/09 11:39:42;;;;;;;;;;;;;;;20.41;29.87;97740.00;5100448;28;983;-81
2022/12/09 11:42:17;;;;;;;;;;;;;;;20.94;29.25;97743.47;5100537;28;872;-81
2022/12/09 11:45:06;;;;;;;;;;;;;;;21.01;29.12;97741.22;5099367;28;910;-81
2022/12/09 11:47:31;;;;;;;;;;;;;;;21.05;29.04;97738.31;5099348;28;920;-81
2022/12/09 11:50:05;;;;;;;;;;;;;;;20.76;29.45;97741.91;5099565;28;833;-81
2022/12/09 11:52:30;;;;;;;;;;;;;;;20.43;30.04;97729.06;5117709;28;1986;-81
2022/12/09 11:55:28;;;;;;;;;;;;;;;20.62;29.60;97736.66;5119845;28;858;-81
2022/12/09 11:58:01;;;;;;;;;;;;;;;20.93;29.23;97744.69;5036577;28;1014;-81
2022/12/09 12:00:29;;;;;;;;;;;;;;;20.97;29.12;97734.09;5004506;28;1507;-81
2022/12/09 12:02:57;;;;;;;;;;;;;;;20.92;29.27;97737.47;5020773;28;935;-81
2022/12/09 12:05:23;;;;;;;;;;;;;;;20.84;29.34;97724.78;5037593;28;967;-81
2022/12/09 12:07:56;;;;;;;;;;;;;;;20.75;29.33;97723.38;5037008;28;1022;-81
2022/12/09 12:10:26;;;;;;;;;;;;;;;20.52;29.56;97737.72;5004333;28;1211;-81
2022/12/09 12:12:51;;;;;;;;;;;;;;;20.88;29.45;97720.63;5020393;28;1910;-81
2022/12/09 12:15:19;;;;;;;;;;;;;;;20.89;29.36;97738.38;5036661;28;1052;-81
2022/12/09 12:17:54;;;;;;;;;;;;;;;21.11;28.82;97733.69;5020547;28;858;-81
2022/12/09 12:20:20;;;;;;;;;;;;;;;21.12;29.08;97735.28;5020501;28;909;-81
2022/12/09 12:22:48;;;;;;;;;;;;;;;20.90;29.17;97734.28;5021070;28;720;-82
2022/12/09 12:25:32;;;;;;;;;;;;;;;20.62;29.85;97728.16;5037243;28;947;-81
2022/12/09 12:28:03;;;;;;;;;;;;;;;20.45;30.08;97720.94;5037013;28;1030;-82
2022/12/09 12:30:44;;;;;;;;;;;;;;;20.68;29.80;97722.78;5021091;28;950;-82
2022/12/09 12:33:27;;;;;;;;;;;;;;;20.99;29.41;97725.97;5067066;28;1012;-81
2022/12/09 12:35:53;;;;;;;;;;;;;;;21.04;28.99;97722.59;5120970;28;888;-81
2022/12/09 12:38:22;;;;;;;;;;;;;;;21.01;29.04;97731.97;5101024;28;904;-81
2022/12/09 12:40:53;;;;;;;;;;;;;;;20.79;29.33;97735.38;5120967;28;898;-82
2022/12/09 12:46:21;;;;;;;;;;;;;;;20.37;30.37;97730.84;5120820;28;860;-81
2022/12/09 12:49:07;;;;;;;;;;;;;;;20.69;29.80;97736.47;5119387;28;852;-82
2022/12/09 12:51:35;;;;;;;;;;;;;;;21.14;28.83;97737.63;5020234;28;1922;-81
2022/12/09 12:54:22;;;;;;;;;;;;;;;21.23;28.78;97735.75;5036382;28;1011;-81
2022/12/09 12:57:11;;;;;;;;;;;;;;;20.85;29.53;97727.16;5004348;28;1516;-81
2022/12/09 12:59:36;;;;;;;;;;;;;;;20.51;30.07;97724.84;4976845;28;1038;-81
2022/12/09 13:02:20;;;;;;;;;;;;;;;20.49;29.89;97724.50;4978309;28;919;-81
2022/12/09 13:04:47;;;;;;;;;;;;;;;20.77;29.58;97737.84;4961210;28;1823;-81
2022/12/09 13:07:12;;;;;;;;;;;;;;;21.08;28.86;97740.22;4978364;28;871;-81
2022/12/09 13:09:38;;;;;;;;;;;;;;;21.21;28.80;97732.59;4960446;28;1331;-81
2022/12/09 13:12:11;;;;;;;;;;;;;;;20.90;29.03;97739.97;4977660;28;1911;-81